sensor_id;sensor_type;location;lat;lon;timestamp;P1;durP1;ratioP1;P2;durP2;ratioP2
3795;SDS011;1913;50.660;7.834;2023-01-23T00:00:26;5.23;;;4.07;;
3795;SDS011;1913;50.660;7.834;2023-01-23T00:02:52;4.53;;;3.60;;
3795;SDS011;1913;50.660;7.834;2023-01-23T00:05:17;4.83;;;3.80;;
3795;SDS011;1913;50.660;7.834;2023-01-23T00:07:43;4.07;;;3.60;;
3795;SDS011;1913;50.660;7.834;2023-01-23T00:10:08;6.17;;;3.90;;
3795;SDS011;1913;50.660;7.834;2023-01-23T00:12:34;6.40;;;4.07;;
3795;SDS011;1913;50.660;7.834;2023-01-23T00:15:00;3.87;;;3.10;;
3795;SDS011;1913;50.660;7.834;2023-01-23T00:17:25;5.97;;;4.30;;
3795;SDS011;1913;50.660;7.834;2023-01-23T00:19:53;5.30;;;4.13;;
3795;SDS011;1913;50.660;7.834;2023-01-23T00:22:20;5.73;;;4.00;;
3795;SDS011;1913;50.660;7.834;2023-01-23T00:24:45;5.87;;;3.83;;
3795;SDS011;1913;50.660;7.834;2023-01-23T00:27:10;6.43;;;3.90;;
3795;SDS011;1913;50.660;7.834;2023-01-23T00:29:36;4.83;;;3.67;;
3795;SDS011;1913;50.660;7.834;2023-01-23T00:32:01;5.17;;;4.10;;
3795;SDS011;1913;50.660;7.834;2023-01-23T00:34:27;4.83;;;3.87;;
3795;SDS011;1913;50.660;7.834;2023-01-23T00:36:52;5.03;;;4.17;;
3795;SDS011;1913;50.660;7.834;2023-01-23T00:39:18;4.77;;;3.67;;
3795;SDS011;1913;50.660;7.834;2023-01-23T00:41:46;6.27;;;4.20;;
3795;SDS011;1913;50.660;7.834;2023-01-23T00:44:13;5.80;;;3.90;;
3795;SDS011;1913;50.660;7.834;2023-01-23T00:46:39;5.10;;;3.83;;
3795;SDS011;1913;50.660;7.834;2023-01-23T00:49:05;4.47;;;3.60;;
3795;SDS011;1913;50.660;7.834;2023-01-23T00:51:31;5.80;;;4.23;;
3795;SDS011;1913;50.660;7.834;2023-01-23T00:53:57;5.70;;;4.10;;
3795;SDS011;1913;50.660;7.834;2023-01-23T00:56:22;5.23;;;4.27;;
3795;SDS011;1913;50.660;7.834;2023-01-23T00:58:47;6.10;;;4.70;;
3795;SDS011;1913;50.660;7.834;2023-01-23T01:01:14;5.37;;;4.10;;
3795;SDS011;1913;50.660;7.834;2023-01-23T01:03:40;6.17;;;4.13;;
3795;SDS011;1913;50.660;7.834;2023-01-23T01:06:06;7.07;;;4.53;;
3795;SDS011;1913;50.660;7.834;2023-01-23T01:08:32;8.77;;;4.50;;
3795;SDS011;1913;50.660;7.834;2023-01-23T01:10:58;5.57;;;4.40;;
3795;SDS011;1913;50.660;7.834;2023-01-23T01:13:24;6.70;;;4.00;;
3795;SDS011;1913;50.660;7.834;2023-01-23T01:15:50;5.70;;;4.80;;
3795;SDS011;1913;50.660;7.834;2023-01-23T01:18:19;7.30;;;4.33;;
3795;SDS011;1913;50.660;7.834;2023-01-23T01:20:46;5.70;;;4.40;;
3795;SDS011;1913;50.660;7.834;2023-01-23T01:23:12;5.93;;;4.17;;
3795;SDS011;1913;50.660;7.834;2023-01-23T01:25:37;7.00;;;4.70;;
3795;SDS011;1913;50.660;7.834;2023-01-23T01:28:03;6.30;;;4.40;;
3795;SDS011;1913;50.660;7.834;2023-01-23T01:30:29;6.80;;;4.17;;
3795;SDS011;1913;50.660;7.834;2023-01-23T01:32:55;7.53;;;5.10;;
3795;SDS011;1913;50.660;7.834;2023-01-23T01:35:21;5.70;;;4.27;;
3795;SDS011;1913;50.660;7.834;2023-01-23T01:37:47;8.20;;;5.60;;
3795;SDS011;1913;50.660;7.834;2023-01-23T01:40:14;7.13;;;4.70;;
3795;SDS011;1913;50.660;7.834;2023-01-23T01:42:51;5.67;;;3.90;;
3795;SDS011;1913;50.660;7.834;2023-01-23T01:48:30;7.83;;;5.53;;
3795;SDS011;1913;50.660;7.834;2023-01-23T01:51:00;8.17;;;4.93;;
3795;SDS011;1913;50.660;7.834;2023-01-23T01:53:30;6.30;;;4.90;;
3795;SDS011;1913;50.660;7.834;2023-01-23T01:55:57;6.97;;;5.13;;
3795;SDS011;1913;50.660;7.834;2023-01-23T01:58:23;6.53;;;4.57;;
3795;SDS011;1913;50.660;7.834;2023-01-23T02:00:50;6.87;;;4.60;;
3795;SDS011;1913;50.660;7.834;2023-01-23T02:03:15;7.10;;;4.77;;
3795;SDS011;1913;50.660;7.834;2023-01-23T02:05:44;7.40;;;5.00;;
3795;SDS011;1913;50.660;7.834;2023-01-23T02:08:14;7.27;;;4.80;;
3795;SDS011;1913;50.660;7.834;2023-01-23T02:10:41;8.40;;;4.97;;
3795;SDS011;1913;50.660;7.834;2023-01-23T02:16:01;9.80;;;5.93;;
3795;SDS011;1913;50.660;7.834;2023-01-23T02:18:29;5.93;;;4.43;;
3795;SDS011;1913;50.660;7.834;2023-01-23T02:20:57;6.43;;;4.87;;
3795;SDS011;1913;50.660;7.834;2023-01-23T02:26:13;9.77;;;6.20;;
3795;SDS011;1913;50.660;7.834;2023-01-23T02:28:44;8.17;;;5.43;;
3795;SDS011;1913;50.660;7.834;2023-01-23T02:31:13;7.27;;;5.20;;
3795;SDS011;1913;50.660;7.834;2023-01-23T02:33:41;10.27;;;5.80;;
3795;SDS011;1913;50.660;7.834;2023-01-23T02:36:09;6.93;;;5.30;;
3795;SDS011;1913;50.660;7.834;2023-01-23T02:38:39;7.00;;;5.03;;
3795;SDS011;1913;50.660;7.834;2023-01-23T02:41:12;9.23;;;5.57;;
3795;SDS011;1913;50.660;7.834;2023-01-23T02:43:39;9.23;;;5.90;;
3795;SDS011;1913;50.660;7.834;2023-01-23T02:46:07;9.20;;;5.90;;
3795;SDS011;1913;50.660;7.834;2023-01-23T02:48:35;7.73;;;5.80;;
3795;SDS011;1913;50.660;7.834;2023-01-23T02:51:02;8.43;;;5.80;;
3795;SDS011;1913;50.660;7.834;2023-01-23T02:53:27;9.63;;;6.33;;
3795;SDS011;1913;50.660;7.834;2023-01-23T02:55:54;9.67;;;6.27;;
3795;SDS011;1913;50.660;7.834;2023-01-23T02:58:21;8.17;;;6.07;;
3795;SDS011;1913;50.660;7.834;2023-01-23T03:01:05;8.97;;;6.10;;
3795;SDS011;1913;50.660;7.834;2023-01-23T03:03:30;12.47;;;6.57;;
3795;SDS011;1913;50.660;7.834;2023-01-23T03:05:56;9.57;;;6.63;;
3795;SDS011;1913;50.660;7.834;2023-01-23T03:08:23;9.73;;;6.53;;
3795;SDS011;1913;50.660;7.834;2023-01-23T03:10:59;8.80;;;5.43;;
3795;SDS011;1913;50.660;7.834;2023-01-23T03:13:25;10.03;;;6.27;;
3795;SDS011;1913;50.660;7.834;2023-01-23T03:15:51;10.90;;;6.20;;
3795;SDS011;1913;50.660;7.834;2023-01-23T03:18:17;9.00;;;5.73;;
3795;SDS011;1913;50.660;7.834;2023-01-23T03:20:43;9.90;;;6.27;;
3795;SDS011;1913;50.660;7.834;2023-01-23T03:23:09;10.37;;;6.50;;
3795;SDS011;1913;50.660;7.834;2023-01-23T03:25:34;8.80;;;5.47;;
3795;SDS011;1913;50.660;7.834;2023-01-23T03:28:00;9.53;;;5.90;;
3795;SDS011;1913;50.660;7.834;2023-01-23T03:30:25;8.27;;;5.70;;
3795;SDS011;1913;50.660;7.834;2023-01-23T03:32:51;7.57;;;5.50;;
3795;SDS011;1913;50.660;7.834;2023-01-23T03:35:17;7.30;;;5.00;;
3795;SDS011;1913;50.660;7.834;2023-01-23T03:37:46;7.60;;;5.00;;
3795;SDS011;1913;50.660;7.834;2023-01-23T03:40:23;7.13;;;5.03;;
3795;SDS011;1913;50.660;7.834;2023-01-23T03:43:08;5.90;;;4.50;;
3795;SDS011;1913;50.660;7.834;2023-01-23T03:45:34;8.73;;;4.80;;
3795;SDS011;1913;50.660;7.834;2023-01-23T03:47:59;5.40;;;4.00;;
3795;SDS011;1913;50.660;7.834;2023-01-23T03:50:24;7.10;;;3.70;;
3795;SDS011;1913;50.660;7.834;2023-01-23T03:52:50;4.23;;;3.40;;
3795;SDS011;1913;50.660;7.834;2023-01-23T03:55:15;5.20;;;3.57;;
3795;SDS011;1913;50.660;7.834;2023-01-23T03:57:41;6.53;;;4.30;;
3795;SDS011;1913;50.660;7.834;2023-01-23T04:00:06;5.43;;;3.07;;
3795;SDS011;1913;50.660;7.834;2023-01-23T04:02:32;6.03;;;3.97;;
3795;SDS011;1913;50.660;7.834;2023-01-23T04:04:57;4.80;;;3.80;;
3795;SDS011;1913;50.660;7.834;2023-01-23T04:07:23;6.07;;;4.10;;
3795;SDS011;1913;50.660;7.834;2023-01-23T04:09:48;4.00;;;3.60;;
3795;SDS011;1913;50.660;7.834;2023-01-23T04:12:14;5.67;;;4.20;;
3795;SDS011;1913;50.660;7.834;2023-01-23T04:14:39;5.40;;;3.90;;
3795;SDS011;1913;50.660;7.834;2023-01-23T04:17:05;4.93;;;3.70;;
3795;SDS011;1913;50.660;7.834;2023-01-23T04:19:31;5.20;;;3.80;;
3795;SDS011;1913;50.660;7.834;2023-01-23T04:21:57;4.93;;;3.40;;
3795;SDS011;1913;50.660;7.834;2023-01-23T04:24:23;4.00;;;3.23;;
3795;SDS011;1913;50.660;7.834;2023-01-23T04:26:49;5.77;;;3.40;;
3795;SDS011;1913;50.660;7.834;2023-01-23T04:29:15;4.50;;;3.30;;
3795;SDS011;1913;50.660;7.834;2023-01-23T04:31:41;3.53;;;3.20;;
3795;SDS011;1913;50.660;7.834;2023-01-23T04:34:07;4.20;;;3.10;;
3795;SDS011;1913;50.660;7.834;2023-01-23T04:36:32;5.70;;;3.50;;
3795;SDS011;1913;50.660;7.834;2023-01-23T04:38:58;4.97;;;3.50;;
3795;SDS011;1913;50.660;7.834;2023-01-23T04:41:24;4.80;;;3.80;;
3795;SDS011;1913;50.660;7.834;2023-01-23T04:43:52;4.50;;;3.67;;
3795;SDS011;1913;50.660;7.834;2023-01-23T04:46:17;6.07;;;3.73;;
3795;SDS011;1913;50.660;7.834;2023-01-23T04:48:43;7.00;;;4.20;;
3795;SDS011;1913;50.660;7.834;2023-01-23T04:51:09;6.03;;;4.30;;
3795;SDS011;1913;50.660;7.834;2023-01-23T04:53:34;5.87;;;3.97;;
3795;SDS011;1913;50.660;7.834;2023-01-23T04:56:00;6.07;;;4.43;;
3795;SDS011;1913;50.660;7.834;2023-01-23T04:58:25;7.80;;;5.00;;
3795;SDS011;1913;50.660;7.834;2023-01-23T05:00:51;8.90;;;6.40;;
3795;SDS011;1913;50.660;7.834;2023-01-23T05:03:17;12.97;;;9.17;;
3795;SDS011;1913;50.660;7.834;2023-01-23T05:05:43;9.90;;;6.40;;
3795;SDS011;1913;50.660;7.834;2023-01-23T05:08:09;8.13;;;5.83;;
3795;SDS011;1913;50.660;7.834;2023-01-23T05:10:36;7.87;;;5.10;;
3795;SDS011;1913;50.660;7.834;2023-01-23T05:13:02;7.73;;;4.90;;
3795;SDS011;1913;50.660;7.834;2023-01-23T05:15:27;7.10;;;5.43;;
3795;SDS011;1913;50.660;7.834;2023-01-23T05:17:53;7.07;;;5.27;;
3795;SDS011;1913;50.660;7.834;2023-01-23T05:20:19;5.67;;;4.30;;
3795;SDS011;1913;50.660;7.834;2023-01-23T05:22:44;4.93;;;3.63;;
3795;SDS011;1913;50.660;7.834;2023-01-23T05:25:24;6.27;;;4.83;;
3795;SDS011;1913;50.660;7.834;2023-01-23T05:27:51;5.77;;;4.20;;
3795;SDS011;1913;50.660;7.834;2023-01-23T05:30:18;5.17;;;4.13;;
3795;SDS011;1913;50.660;7.834;2023-01-23T05:32:45;5.63;;;4.00;;
3795;SDS011;1913;50.660;7.834;2023-01-23T05:35:11;5.10;;;3.80;;
3795;SDS011;1913;50.660;7.834;2023-01-23T05:37:36;5.57;;;4.27;;
3795;SDS011;1913;50.660;7.834;2023-01-23T05:40:02;7.23;;;4.90;;
3795;SDS011;1913;50.660;7.834;2023-01-23T05:42:28;5.90;;;4.70;;
3795;SDS011;1913;50.660;7.834;2023-01-23T05:44:53;5.90;;;4.53;;
3795;SDS011;1913;50.660;7.834;2023-01-23T05:47:19;8.33;;;5.20;;
3795;SDS011;1913;50.660;7.834;2023-01-23T05:49:44;6.40;;;5.03;;
3795;SDS011;1913;50.660;7.834;2023-01-23T05:52:11;7.60;;;5.20;;
3795;SDS011;1913;50.660;7.834;2023-01-23T05:54:37;6.17;;;5.00;;
3795;SDS011;1913;50.660;7.834;2023-01-23T05:57:02;5.60;;;4.23;;
3795;SDS011;1913;50.660;7.834;2023-01-23T05:59:28;5.87;;;4.60;;
3795;SDS011;1913;50.660;7.834;2023-01-23T06:01:54;6.90;;;5.13;;
3795;SDS011;1913;50.660;7.834;2023-01-23T06:04:19;6.00;;;4.50;;
3795;SDS011;1913;50.660;7.834;2023-01-23T06:06:44;6.20;;;4.97;;
3795;SDS011;1913;50.660;7.834;2023-01-23T06:09:10;5.80;;;4.47;;
3795;SDS011;1913;50.660;7.834;2023-01-23T06:11:35;5.40;;;4.10;;
3795;SDS011;1913;50.660;7.834;2023-01-23T06:14:01;5.50;;;4.30;;
3795;SDS011;1913;50.660;7.834;2023-01-23T06:16:26;6.07;;;4.70;;
3795;SDS011;1913;50.660;7.834;2023-01-23T06:18:52;7.23;;;5.03;;
3795;SDS011;1913;50.660;7.834;2023-01-23T06:21:17;7.60;;;5.17;;
3795;SDS011;1913;50.660;7.834;2023-01-23T06:23:43;7.67;;;4.87;;
3795;SDS011;1913;50.660;7.834;2023-01-23T06:26:09;7.20;;;4.90;;
3795;SDS011;1913;50.660;7.834;2023-01-23T06:28:35;7.10;;;5.13;;
3795;SDS011;1913;50.660;7.834;2023-01-23T06:31:01;7.60;;;5.23;;
3795;SDS011;1913;50.660;7.834;2023-01-23T06:33:28;7.53;;;4.87;;
3795;SDS011;1913;50.660;7.834;2023-01-23T06:36:01;6.97;;;5.33;;
3795;SDS011;1913;50.660;7.834;2023-01-23T06:38:29;5.93;;;5.10;;
3795;SDS011;1913;50.660;7.834;2023-01-23T06:40:54;7.77;;;5.73;;
3795;SDS011;1913;50.660;7.834;2023-01-23T06:43:20;5.50;;;4.30;;
3795;SDS011;1913;50.660;7.834;2023-01-23T06:45:47;7.67;;;5.60;;
3795;SDS011;1913;50.660;7.834;2023-01-23T06:48:13;5.80;;;4.47;;
3795;SDS011;1913;50.660;7.834;2023-01-23T06:50:39;5.57;;;4.43;;
3795;SDS011;1913;50.660;7.834;2023-01-23T06:53:05;7.47;;;4.90;;
3795;SDS011;1913;50.660;7.834;2023-01-23T06:55:31;6.90;;;5.07;;
3795;SDS011;1913;50.660;7.834;2023-01-23T06:57:57;6.60;;;5.20;;
3795;SDS011;1913;50.660;7.834;2023-01-23T07:00:23;8.10;;;5.00;;
3795;SDS011;1913;50.660;7.834;2023-01-23T07:02:48;5.30;;;4.23;;
3795;SDS011;1913;50.660;7.834;2023-01-23T07:05:14;6.60;;;4.90;;
3795;SDS011;1913;50.660;7.834;2023-01-23T07:07:40;5.73;;;4.70;;
3795;SDS011;1913;50.660;7.834;2023-01-23T07:10:06;5.50;;;3.93;;
3795;SDS011;1913;50.660;7.834;2023-01-23T07:12:32;4.30;;;3.43;;
3795;SDS011;1913;50.660;7.834;2023-01-23T07:14:58;3.87;;;3.20;;
3795;SDS011;1913;50.660;7.834;2023-01-23T07:17:24;3.90;;;3.10;;
3795;SDS011;1913;50.660;7.834;2023-01-23T07:19:49;4.40;;;3.63;;
3795;SDS011;1913;50.660;7.834;2023-01-23T07:22:15;4.57;;;3.80;;
3795;SDS011;1913;50.660;7.834;2023-01-23T07:24:42;4.03;;;3.63;;
3795;SDS011;1913;50.660;7.834;2023-01-23T07:27:08;5.33;;;4.17;;
3795;SDS011;1913;50.660;7.834;2023-01-23T07:29:33;3.73;;;3.20;;
3795;SDS011;1913;50.660;7.834;2023-01-23T07:31:59;3.93;;;3.53;;
3795;SDS011;1913;50.660;7.834;2023-01-23T07:34:28;4.40;;;4.00;;
3795;SDS011;1913;50.660;7.834;2023-01-23T07:36:53;6.93;;;3.80;;
3795;SDS011;1913;50.660;7.834;2023-01-23T07:39:19;4.10;;;3.70;;
3795;SDS011;1913;50.660;7.834;2023-01-23T07:41:44;4.40;;;3.90;;
3795;SDS011;1913;50.660;7.834;2023-01-23T07:44:13;4.00;;;3.50;;
3795;SDS011;1913;50.660;7.834;2023-01-23T07:46:41;6.70;;;4.13;;
3795;SDS011;1913;50.660;7.834;2023-01-23T07:49:07;5.73;;;4.30;;
3795;SDS011;1913;50.660;7.834;2023-01-23T07:51:33;6.57;;;5.30;;
3795;SDS011;1913;50.660;7.834;2023-01-23T07:53:59;6.87;;;4.83;;
3795;SDS011;1913;50.660;7.834;2023-01-23T07:56:24;5.80;;;4.47;;
3795;SDS011;1913;50.660;7.834;2023-01-23T07:58:50;5.80;;;4.47;;
3795;SDS011;1913;50.660;7.834;2023-01-23T08:01:15;5.70;;;4.03;;
3795;SDS011;1913;50.660;7.834;2023-01-23T08:03:41;4.93;;;3.97;;
3795;SDS011;1913;50.660;7.834;2023-01-23T08:06:07;3.90;;;3.20;;
3795;SDS011;1913;50.660;7.834;2023-01-23T08:08:32;3.70;;;3.37;;
3795;SDS011;1913;50.660;7.834;2023-01-23T08:10:57;4.40;;;3.93;;
3795;SDS011;1913;50.660;7.834;2023-01-23T08:13:23;3.60;;;3.27;;
3795;SDS011;1913;50.660;7.834;2023-01-23T08:15:48;5.70;;;4.30;;
3795;SDS011;1913;50.660;7.834;2023-01-23T08:18:14;5.50;;;4.07;;
3795;SDS011;1913;50.660;7.834;2023-01-23T08:20:39;4.70;;;4.00;;
3795;SDS011;1913;50.660;7.834;2023-01-23T08:23:05;5.37;;;4.17;;
3795;SDS011;1913;50.660;7.834;2023-01-23T08:25:30;5.13;;;3.67;;
3795;SDS011;1913;50.660;7.834;2023-01-23T08:27:55;4.20;;;3.80;;
3795;SDS011;1913;50.660;7.834;2023-01-23T08:30:21;5.33;;;4.63;;
3795;SDS011;1913;50.660;7.834;2023-01-23T08:32:47;4.50;;;3.83;;
3795;SDS011;1913;50.660;7.834;2023-01-23T08:35:12;5.17;;;4.17;;
3795;SDS011;1913;50.660;7.834;2023-01-23T08:37:38;7.10;;;4.80;;
3795;SDS011;1913;50.660;7.834;2023-01-23T08:40:05;4.33;;;3.87;;
3795;SDS011;1913;50.660;7.834;2023-01-23T08:42:31;7.40;;;4.60;;
3795;SDS011;1913;50.660;7.834;2023-01-23T08:44:57;7.47;;;4.63;;
3795;SDS011;1913;50.660;7.834;2023-01-23T08:47:22;5.70;;;4.20;;
3795;SDS011;1913;50.660;7.834;2023-01-23T08:49:48;4.07;;;3.40;;
3795;SDS011;1913;50.660;7.834;2023-01-23T08:52:14;7.97;;;5.40;;
3795;SDS011;1913;50.660;7.834;2023-01-23T08:54:39;6.83;;;4.07;;
3795;SDS011;1913;50.660;7.834;2023-01-23T08:57:05;5.27;;;3.90;;
3795;SDS011;1913;50.660;7.834;2023-01-23T08:59:30;5.80;;;4.13;;
3795;SDS011;1913;50.660;7.834;2023-01-23T09:01:56;9.60;;;6.93;;
3795;SDS011;1913;50.660;7.834;2023-01-23T09:04:21;4.27;;;3.40;;
3795;SDS011;1913;50.660;7.834;2023-01-23T09:06:46;6.60;;;4.50;;
3795;SDS011;1913;50.660;7.834;2023-01-23T09:09:12;5.27;;;3.77;;
3795;SDS011;1913;50.660;7.834;2023-01-23T09:11:37;5.10;;;3.73;;
3795;SDS011;1913;50.660;7.834;2023-01-23T09:14:03;3.80;;;3.40;;
3795;SDS011;1913;50.660;7.834;2023-01-23T09:16:28;5.20;;;4.00;;
3795;SDS011;1913;50.660;7.834;2023-01-23T09:18:54;3.77;;;3.40;;
3795;SDS011;1913;50.660;7.834;2023-01-23T09:21:20;4.93;;;4.03;;
3795;SDS011;1913;50.660;7.834;2023-01-23T09:23:45;6.00;;;4.10;;
3795;SDS011;1913;50.660;7.834;2023-01-23T09:26:11;4.67;;;3.70;;
3795;SDS011;1913;50.660;7.834;2023-01-23T09:28:38;4.53;;;3.60;;
3795;SDS011;1913;50.660;7.834;2023-01-23T09:31:07;4.70;;;3.90;;
3795;SDS011;1913;50.660;7.834;2023-01-23T09:33:35;6.47;;;3.97;;
3795;SDS011;1913;50.660;7.834;2023-01-23T09:36:02;6.17;;;4.17;;
3795;SDS011;1913;50.660;7.834;2023-01-23T09:38:28;4.40;;;3.67;;
3795;SDS011;1913;50.660;7.834;2023-01-23T09:40:57;5.00;;;4.03;;
3795;SDS011;1913;50.660;7.834;2023-01-23T09:56:59;6.03;;;4.57;;
3795;SDS011;1913;50.660;7.834;2023-01-23T10:02:01;4.90;;;3.90;;
3795;SDS011;1913;50.660;7.834;2023-01-23T10:04:27;5.40;;;4.13;;
3795;SDS011;1913;50.660;7.834;2023-01-23T10:06:59;4.90;;;4.13;;
3795;SDS011;1913;50.660;7.834;2023-01-23T10:12:41;5.43;;;4.30;;
3795;SDS011;1913;50.660;7.834;2023-01-23T10:24:00;6.27;;;5.30;;
3795;SDS011;1913;50.660;7.834;2023-01-23T10:26:35;7.67;;;5.80;;
3795;SDS011;1913;50.660;7.834;2023-01-23T10:31:54;6.70;;;5.63;;
3795;SDS011;1913;50.660;7.834;2023-01-23T10:37:12;8.63;;;5.60;;
3795;SDS011;1913;50.660;7.834;2023-01-23T10:40:01;6.23;;;4.33;;
3795;SDS011;1913;50.660;7.834;2023-01-23T10:42:31;6.00;;;4.50;;
3795;SDS011;1913;50.660;7.834;2023-01-23T10:44:57;5.73;;;4.47;;
3795;SDS011;1913;50.660;7.834;2023-01-23T10:47:28;5.90;;;4.77;;
3795;SDS011;1913;50.660;7.834;2023-01-23T10:49:58;6.97;;;5.17;;
3795;SDS011;1913;50.660;7.834;2023-01-23T10:55:03;7.20;;;5.10;;
3795;SDS011;1913;50.660;7.834;2023-01-23T10:57:34;8.13;;;6.13;;
3795;SDS011;1913;50.660;7.834;2023-01-23T11:00:20;7.00;;;5.27;;
3795;SDS011;1913;50.660;7.834;2023-01-23T11:05:47;7.37;;;5.17;;
3795;SDS011;1913;50.660;7.834;2023-01-23T11:08:33;5.80;;;4.33;;
3795;SDS011;1913;50.660;7.834;2023-01-23T11:14:05;5.83;;;4.17;;
3795;SDS011;1913;50.660;7.834;2023-01-23T11:16:35;6.53;;;5.40;;
3795;SDS011;1913;50.660;7.834;2023-01-23T11:21:50;7.73;;;5.60;;
3795;SDS011;1913;50.660;7.834;2023-01-23T11:24:32;11.03;;;6.40;;
3795;SDS011;1913;50.660;7.834;2023-01-23T11:27:02;10.20;;;6.77;;
3795;SDS011;1913;50.660;7.834;2023-01-23T11:29:39;14.90;;;8.67;;
3795;SDS011;1913;50.660;7.834;2023-01-23T11:32:16;7.23;;;5.83;;
3795;SDS011;1913;50.660;7.834;2023-01-23T11:34:43;7.70;;;5.37;;
3795;SDS011;1913;50.660;7.834;2023-01-23T11:40:10;7.50;;;5.30;;
3795;SDS011;1913;50.660;7.834;2023-01-23T11:42:39;13.80;;;7.37;;
3795;SDS011;1913;50.660;7.834;2023-01-23T11:45:11;12.23;;;7.10;;
3795;SDS011;1913;50.660;7.834;2023-01-23T11:47:59;6.73;;;5.40;;
3795;SDS011;1913;50.660;7.834;2023-01-23T11:50:40;9.03;;;5.70;;
3795;SDS011;1913;50.660;7.834;2023-01-23T11:53:21;6.27;;;4.40;;
3795;SDS011;1913;50.660;7.834;2023-01-23T12:01:10;6.37;;;4.93;;
3795;SDS011;1913;50.660;7.834;2023-01-23T12:11:20;6.60;;;4.90;;
3795;SDS011;1913;50.660;7.834;2023-01-23T12:14:00;9.23;;;6.50;;
3795;SDS011;1913;50.660;7.834;2023-01-23T12:16:39;6.87;;;4.70;;
3795;SDS011;1913;50.660;7.834;2023-01-23T12:19:17;9.60;;;5.50;;
3795;SDS011;1913;50.660;7.834;2023-01-23T12:21:55;8.80;;;5.07;;
3795;SDS011;1913;50.660;7.834;2023-01-23T12:35:47;6.60;;;5.00;;
3795;SDS011;1913;50.660;7.834;2023-01-23T12:38:24;7.17;;;5.07;;
3795;SDS011;1913;50.660;7.834;2023-01-23T12:41:07;6.40;;;4.53;;
3795;SDS011;1913;50.660;7.834;2023-01-23T12:46:21;5.23;;;4.20;;
3795;SDS011;1913;50.660;7.834;2023-01-23T12:48:53;6.40;;;4.97;;
3795;SDS011;1913;50.660;7.834;2023-01-23T12:51:32;7.77;;;5.30;;
3795;SDS011;1913;50.660;7.834;2023-01-23T12:54:05;7.90;;;5.43;;
3795;SDS011;1913;50.660;7.834;2023-01-23T12:56:38;6.90;;;5.33;;
3795;SDS011;1913;50.660;7.834;2023-01-23T13:05:07;9.27;;;6.60;;
3795;SDS011;1913;50.660;7.834;2023-01-23T13:10:39;10.60;;;6.60;;
3795;SDS011;1913;50.660;7.834;2023-01-23T13:13:38;7.30;;;4.80;;
3795;SDS011;1913;50.660;7.834;2023-01-23T13:16:09;10.53;;;6.30;;
3795;SDS011;1913;50.660;7.834;2023-01-23T13:18:37;8.10;;;6.00;;
3795;SDS011;1913;50.660;7.834;2023-01-23T13:21:21;11.50;;;7.40;;
3795;SDS011;1913;50.660;7.834;2023-01-23T13:24:22;10.80;;;6.70;;
3795;SDS011;1913;50.660;7.834;2023-01-23T13:29:59;9.77;;;6.37;;
3795;SDS011;1913;50.660;7.834;2023-01-23T13:32:29;8.80;;;5.83;;
3795;SDS011;1913;50.660;7.834;2023-01-23T13:34:55;9.70;;;6.43;;
3795;SDS011;1913;50.660;7.834;2023-01-23T13:40:12;10.73;;;6.73;;
3795;SDS011;1913;50.660;7.834;2023-01-23T13:42:40;8.40;;;6.00;;
3795;SDS011;1913;50.660;7.834;2023-01-23T13:51:17;9.27;;;6.33;;
3795;SDS011;1913;50.660;7.834;2023-01-23T13:53:45;9.87;;;6.27;;
3795;SDS011;1913;50.660;7.834;2023-01-23T13:56:31;9.23;;;6.60;;
3795;SDS011;1913;50.660;7.834;2023-01-23T13:59:08;7.87;;;5.70;;
3795;SDS011;1913;50.660;7.834;2023-01-23T14:01:50;9.97;;;6.53;;
3795;SDS011;1913;50.660;7.834;2023-01-23T14:04:40;9.70;;;6.60;;
3795;SDS011;1913;50.660;7.834;2023-01-23T14:07:33;8.63;;;5.40;;
3795;SDS011;1913;50.660;7.834;2023-01-23T14:13:08;7.27;;;5.10;;
3795;SDS011;1913;50.660;7.834;2023-01-23T14:15:40;8.67;;;5.63;;
3795;SDS011;1913;50.660;7.834;2023-01-23T14:18:35;9.20;;;6.40;;
3795;SDS011;1913;50.660;7.834;2023-01-23T14:21:02;9.53;;;6.47;;
3795;SDS011;1913;50.660;7.834;2023-01-23T14:23:36;8.57;;;6.17;;
3795;SDS011;1913;50.660;7.834;2023-01-23T14:26:06;10.67;;;7.07;;
3795;SDS011;1913;50.660;7.834;2023-01-23T14:28:34;9.43;;;6.03;;
3795;SDS011;1913;50.660;7.834;2023-01-23T14:31:01;10.03;;;7.10;;
3795;SDS011;1913;50.660;7.834;2023-01-23T14:33:37;9.67;;;6.70;;
3795;SDS011;1913;50.660;7.834;2023-01-23T14:36:05;10.00;;;6.87;;
3795;SDS011;1913;50.660;7.834;2023-01-23T14:38:31;14.30;;;6.37;;
3795;SDS011;1913;50.660;7.834;2023-01-23T14:41:01;9.70;;;6.60;;
3795;SDS011;1913;50.660;7.834;2023-01-23T14:43:30;9.97;;;6.70;;
3795;SDS011;1913;50.660;7.834;2023-01-23T14:45:59;10.90;;;6.07;;
3795;SDS011;1913;50.660;7.834;2023-01-23T14:48:45;11.57;;;7.33;;
3795;SDS011;1913;50.660;7.834;2023-01-23T14:51:17;10.57;;;6.80;;
3795;SDS011;1913;50.660;7.834;2023-01-23T14:53:56;7.97;;;6.00;;
3795;SDS011;1913;50.660;7.834;2023-01-23T14:56:26;8.77;;;6.23;;
3795;SDS011;1913;50.660;7.834;2023-01-23T14:58:55;9.57;;;6.73;;
3795;SDS011;1913;50.660;7.834;2023-01-23T15:01:23;9.20;;;6.73;;
3795;SDS011;1913;50.660;7.834;2023-01-23T15:04:24;10.90;;;6.87;;
3795;SDS011;1913;50.660;7.834;2023-01-23T15:06:49;7.50;;;5.70;;
3795;SDS011;1913;50.660;7.834;2023-01-23T15:09:17;8.97;;;6.43;;
3795;SDS011;1913;50.660;7.834;2023-01-23T15:11:53;9.67;;;7.17;;
3795;SDS011;1913;50.660;7.834;2023-01-23T15:14:26;11.53;;;7.17;;
3795;SDS011;1913;50.660;7.834;2023-01-23T15:17:00;10.10;;;6.40;;
3795;SDS011;1913;50.660;7.834;2023-01-23T15:19:27;8.80;;;6.13;;
3795;SDS011;1913;50.660;7.834;2023-01-23T15:24:32;9.70;;;5.87;;
3795;SDS011;1913;50.660;7.834;2023-01-23T15:29:32;9.17;;;6.97;;
3795;SDS011;1913;50.660;7.834;2023-01-23T15:31:59;11.27;;;7.00;;
3795;SDS011;1913;50.660;7.834;2023-01-23T15:34:32;10.80;;;6.90;;
3795;SDS011;1913;50.660;7.834;2023-01-23T15:44:35;10.63;;;6.83;;
3795;SDS011;1913;50.660;7.834;2023-01-23T15:47:00;11.67;;;7.60;;
3795;SDS011;1913;50.660;7.834;2023-01-23T15:49:28;11.40;;;6.93;;
3795;SDS011;1913;50.660;7.834;2023-01-23T15:51:58;14.00;;;7.73;;
3795;SDS011;1913;50.660;7.834;2023-01-23T15:54:33;10.67;;;7.00;;
3795;SDS011;1913;50.660;7.834;2023-01-23T15:57:01;9.70;;;6.40;;
3795;SDS011;1913;50.660;7.834;2023-01-23T15:59:27;9.43;;;6.90;;
3795;SDS011;1913;50.660;7.834;2023-01-23T16:01:53;12.70;;;8.57;;
3795;SDS011;1913;50.660;7.834;2023-01-23T16:04:19;11.60;;;8.00;;
3795;SDS011;1913;50.660;7.834;2023-01-23T16:06:45;11.73;;;7.40;;
3795;SDS011;1913;50.660;7.834;2023-01-23T16:09:30;12.83;;;7.70;;
3795;SDS011;1913;50.660;7.834;2023-01-23T16:11:58;12.10;;;7.70;;
3795;SDS011;1913;50.660;7.834;2023-01-23T16:14:24;13.90;;;8.30;;
3795;SDS011;1913;50.660;7.834;2023-01-23T16:16:49;20.80;;;10.53;;
3795;SDS011;1913;50.660;7.834;2023-01-23T16:19:15;17.10;;;10.40;;
3795;SDS011;1913;50.660;7.834;2023-01-23T16:21:40;14.63;;;8.17;;
3795;SDS011;1913;50.660;7.834;2023-01-23T16:24:21;17.87;;;10.20;;
3795;SDS011;1913;50.660;7.834;2023-01-23T16:26:49;15.80;;;10.50;;
3795;SDS011;1913;50.660;7.834;2023-01-23T16:29:25;14.30;;;9.07;;
3795;SDS011;1913;50.660;7.834;2023-01-23T16:31:53;14.00;;;8.90;;
3795;SDS011;1913;50.660;7.834;2023-01-23T16:34:19;13.40;;;8.00;;
3795;SDS011;1913;50.660;7.834;2023-01-23T16:36:44;20.43;;;10.97;;
3795;SDS011;1913;50.660;7.834;2023-01-23T16:39:20;22.40;;;11.47;;
3795;SDS011;1913;50.660;7.834;2023-01-23T16:41:48;22.93;;;12.27;;
3795;SDS011;1913;50.660;7.834;2023-01-23T16:44:15;18.67;;;12.23;;
3795;SDS011;1913;50.660;7.834;2023-01-23T16:46:45;15.10;;;9.80;;
3795;SDS011;1913;50.660;7.834;2023-01-23T16:49:12;15.67;;;10.73;;
3795;SDS011;1913;50.660;7.834;2023-01-23T16:51:39;14.37;;;8.67;;
3795;SDS011;1913;50.660;7.834;2023-01-23T16:54:10;13.90;;;9.10;;
3795;SDS011;1913;50.660;7.834;2023-01-23T16:56:39;16.10;;;9.30;;
3795;SDS011;1913;50.660;7.834;2023-01-23T16:59:06;12.73;;;7.47;;
3795;SDS011;1913;50.660;7.834;2023-01-23T17:01:39;10.90;;;7.53;;
3795;SDS011;1913;50.660;7.834;2023-01-23T17:04:09;11.90;;;8.30;;
3795;SDS011;1913;50.660;7.834;2023-01-23T17:06:37;14.73;;;9.20;;
3795;SDS011;1913;50.660;7.834;2023-01-23T17:09:03;12.20;;;7.97;;
3795;SDS011;1913;50.660;7.834;2023-01-23T17:11:30;14.10;;;9.30;;
3795;SDS011;1913;50.660;7.834;2023-01-23T17:13:59;16.43;;;9.40;;
3795;SDS011;1913;50.660;7.834;2023-01-23T17:16:28;13.13;;;7.70;;
3795;SDS011;1913;50.660;7.834;2023-01-23T17:18:54;12.03;;;8.50;;
3795;SDS011;1913;50.660;7.834;2023-01-23T17:21:22;11.47;;;7.50;;